Time;durP1;ratioP1;P1;durP2;ratioP2;P2;SDS_P1;SDS_P2;PMS_P1;PMS_P2;Temp;Humidity;BMP_temperature;BMP_pressure;BME280_temperature;BME280_humidity;BME280_pressure;Samples;Min_cycle;Max_cycle;Signal;HPM_P1;HPM_P2
2022/01/04 00:00:45;;;;;;;6.20;3.30;;;;;;;7.29;97.09;100039.00;6221395;23;20309;-88
2022/01/04 00:03:11;;;;;;;10.25;3.75;;;;;;;7.60;97.40;100084.13;6218965;23;20004;-88
2022/01/04 00:05:37;;;;;;;11.07;3.90;;;;;;;7.24;97.11;100031.53;6193669;23;20179;-89
2022/01/04 00:08:09;;;;;;;8.38;3.63;;;;;;;7.47;97.34;100060.72;6193594;23;20046;-90
2022/01/04 00:10:35;;;;;;;5.88;3.30;;;;;;;7.34;97.38;100045.41;6218859;23;20386;-89
2022/01/04 00:13:24;;;;;;;7.00;3.50;;;;;;;7.47;97.20;100055.34;6193801;23;20058;-89
2022/01/04 00:15:54;;;;;;;6.80;3.50;;;;;;;7.20;97.76;100022.22;6245119;23;20008;-88
2022/01/04 00:18:20;;;;;;;7.22;3.63;;;;;;;7.19;97.85;100013.31;6218312;23;20008;-89
2022/01/04 00:20:46;;;;;;;4.82;3.20;;;;;;;7.44;97.29;100042.28;6193419;23;20447;-89
2022/01/04 00:23:12;;;;;;;5.97;3.30;;;;;;;7.20;97.45;100003.31;6218345;23;20050;-89
2022/01/04 00:25:37;;;;;;;6.60;3.20;;;;;;;7.54;97.67;100050.75;6243664;23;20003;-89
2022/01/04 00:28:07;;;;;;;5.90;2.83;;;;;;;7.55;98.10;100052.38;6193360;23;20023;-89
2022/01/04 00:30:42;;;;;;;6.07;3.90;;;;;;;7.57;98.06;100038.66;6194346;23;20074;-89
2022/01/04 00:33:11;;;;;;;6.65;3.15;;;;;;;7.22;97.37;99973.44;6218564;23;20493;-89
2022/01/04 00:35:37;;;;;;;4.70;3.08;;;;;;;7.18;97.76;99967.66;6218435;23;20431;-89
2022/01/04 00:38:07;;;;;;;7.00;3.42;;;;;;;7.50;98.07;100003.63;6245215;23;20011;-89
2022/01/04 00:40:33;;;;;;;6.45;3.70;;;;;;;7.29;97.82;99972.38;6218292;23;20083;-89
2022/01/04 00:42:59;;;;;;;6.72;3.60;;;;;;;7.31;97.83;99974.88;6193140;23;20039;-89
2022/01/04 00:45:26;;;;;;;8.07;3.45;;;;;;;7.42;97.95;99987.66;6217923;23;20004;-88
2022/01/04 00:50:23;;;;;;;6.82;3.67;;;;;;;7.12;98.26;99936.16;6230380;23;20091;-88
2022/01/04 00:52:52;;;;;;;9.55;3.70;;;;;;;7.34;98.65;99977.94;6245043;23;20000;-89
2022/01/04 00:55:20;;;;;;;7.07;3.45;;;;;;;7.21;98.75;99959.13;6192828;23;20039;-89
2022/01/04 00:57:46;;;;;;;7.13;4.30;;;;;;;7.17;98.61;99953.31;6218719;23;20011;-89
2022/01/04 01:00:16;;;;;;;9.52;3.92;;;;;;;7.38;98.70;99973.78;6217713;23;20431;-89
2022/01/04 01:02:45;;;;;;;7.50;3.83;;;;;;;7.28;98.70;99954.53;6218182;23;20006;-88
2022/01/04 01:05:11;;;;;;;6.68;3.80;;;;;;;7.27;98.50;99950.16;6193089;23;20004;-88
2022/01/04 01:07:38;;;;;;;6.97;4.28;;;;;;;7.29;98.72;99963.44;6193157;23;20008;-89
2022/01/04 01:10:25;;;;;;;9.27;4.68;;;;;;;7.13;98.86;99935.94;6193522;23;20015;-89
2022/01/04 01:12:56;;;;;;;6.80;3.95;;;;;;;7.01;98.92;99913.34;6218319;23;20011;-89
2022/01/04 01:15:22;;;;;;;6.68;3.70;;;;;;;7.00;98.67;99919.81;6193465;23;20008;-89
2022/01/04 01:17:48;;;;;;;7.43;3.88;;;;;;;7.35;98.38;99976.91;6217629;23;20027;-89
2022/01/04 01:20:14;;;;;;;10.57;4.25;;;;;;;7.18;98.43;99946.06;6168385;23;20016;-89
2022/01/04 01:22:41;;;;;;;9.80;4.40;;;;;;;7.08;98.42;99924.94;6218193;23;20011;-89
2022/01/04 01:25:08;;;;;;;8.15;4.10;;;;;;;7.07;98.53;99927.84;6167158;23;20008;-88
2022/01/04 01:27:34;;;;;;;8.68;4.18;;;;;;;7.31;98.72;99962.19;6193149;23;20020;-88
2022/01/04 01:30:00;;;;;;;8.13;4.15;;;;;;;7.16;98.48;99931.94;6170134;23;20012;-88
2022/01/04 01:32:25;;;;;;;8.02;4.10;;;;;;;7.31;98.68;99959.50;6219867;23;20011;-88
2022/01/04 01:34:53;;;;;;;9.43;4.30;;;;;;;7.24;98.54;99942.50;6194865;23;20379;-88
2022/01/04 01:37:22;;;;;;;9.70;4.68;;;;;;;7.01;98.13;99895.31;6219885;23;20004;-88
2022/01/04 01:39:47;;;;;;;10.00;4.70;;;;;;;7.18;98.55;99921.78;6219870;23;20004;-88
2022/01/04 01:42:13;;;;;;;11.45;4.68;;;;;;;7.24;98.75;99939.00;6194710;23;20011;-88
2022/01/04 01:44:39;;;;;;;10.40;4.47;;;;;;;6.90;98.94;99876.28;6194785;23;20008;-88
2022/01/04 01:47:05;;;;;;;11.38;5.15;;;;;;;7.14;98.59;99915.16;6194975;23;20383;-88
2022/01/04 01:49:30;;;;;;;9.68;4.95;;;;;;;7.03;98.75;99897.81;6219978;23;20007;-89
2022/01/04 01:51:57;;;;;;;10.32;4.90;;;;;;;7.08;98.74;99908.75;6219562;23;20000;-88
2022/01/04 01:54:26;;;;;;;9.80;5.13;;;;;;;7.08;98.97;99897.97;6220169;23;20062;-89
2022/01/04 01:56:52;;;;;;;10.18;5.47;;;;;;;7.26;98.86;99936.91;6172522;23;20043;-88
2022/01/04 01:59:17;;;;;;;10.75;4.85;;;;;;;7.03;98.74;99895.09;6196038;23;20386;-89
2022/01/04 02:01:44;;;;;;;13.50;5.38;;;;;;;7.22;98.93;99927.56;6195790;23;20012;-89
2022/01/04 02:04:09;;;;;;;12.35;5.03;;;;;;;6.92;98.90;99877.72;6220013;23;20086;-89
2022/01/04 02:06:36;;;;;;;10.95;5.70;;;;;;;7.22;98.54;99919.47;6194957;23;20008;-88
2022/01/04 02:09:05;;;;;;;8.65;5.03;;;;;;;7.16;99.06;99907.66;6219415;23;20015;-88
2022/01/04 02:11:31;;;;;;;10.32;5.10;;;;;;;7.03;98.76;99882.44;6195102;23;20004;-88
2022/01/04 02:14:01;;;;;;;12.27;5.90;;;;;;;7.17;98.61;99901.25;6219469;23;20007;-88
2022/01/04 02:16:29;;;;;;;9.30;5.43;;;;;;;7.14;98.45;99897.09;6193929;23;20016;-88
2022/01/04 02:19:04;;;;;;;13.20;6.10;;;;;;;7.15;99.12;99885.28;6246321;23;20362;-88
2022/01/04 02:21:30;;;;;;;11.13;5.75;;;;;;;7.05;99.01;99868.72;6246562;23;20004;-88
2022/01/04 02:23:56;;;;;;;11.25;5.70;;;;;;;7.02;98.48;99866.47;6220061;23;19997;-88
2022/01/04 02:26:22;;;;;;;12.82;5.68;;;;;;;7.10;98.77;99885.09;6219019;23;20050;-88
2022/01/04 02:28:49;;;;;;;11.68;6.47;;;;;;;7.08;98.98;99870.19;6194110;23;20325;-88
2022/01/04 02:31:14;;;;;;;12.13;5.55;;;;;;;7.08;99.06;99875.56;6219772;23;20008;-88
2022/01/04 02:33:40;;;;;;;11.00;5.35;;;;;;;6.96;98.60;99848.47;6169666;23;20015;-89
2022/01/04 02:36:05;;;;;;;14.30;6.13;;;;;;;6.85;98.83;99837.31;6169636;23;20095;-88
2022/01/04 02:38:34;;;;;;;13.18;5.78;;;;;;;7.02;98.68;99861.88;6194534;23;20431;-88
2022/01/04 02:41:00;;;;;;;12.98;6.07;;;;;;;7.05;98.70;99868.72;6194348;23;20004;-89
2022/01/04 02:43:26;;;;;;;10.23;5.53;;;;;;;6.96;98.47;99848.47;6218876;23;20427;-88
2022/01/04 02:45:51;;;;;;;12.65;5.90;;;;;;;6.84;98.53;99837.53;6219767;23;20028;-88
2022/01/04 02:48:17;;;;;;;10.48;5.88;;;;;;;7.06;98.67;99856.06;6169745;23;20362;-88
2022/01/04 02:50:42;;;;;;;16.17;6.43;;;;;;;6.78;98.62;99806.03;6195838;23;20095;-89
2022/01/04 02:53:08;;;;;;;12.13;5.97;;;;;;;6.83;98.64;99817.81;6220038;23;20083;-89
2022/01/04 02:55:34;;;;;;;12.77;6.13;;;;;;;6.78;98.37;99804.16;6219251;23;20424;-88
2022/01/04 02:58:01;;;;;;;12.65;6.20;;;;;;;7.04;98.60;99842.78;6219305;23;20008;-88
2022/01/04 03:00:28;;;;;;;12.20;5.68;;;;;;;6.97;98.31;99818.56;6169846;23;20008;-90
2022/01/04 03:02:55;;;;;;;10.43;5.88;;;;;;;6.71;98.38;99781.81;6170176;23;20431;-89
2022/01/04 03:05:21;;;;;;;13.77;5.90;;;;;;;7.02;98.40;99824.13;6219436;23;20006;-89
2022/01/04 03:07:46;;;;;;;13.02;5.18;;;;;;;6.71;97.81;99778.28;6194715;23;20015;-89
2022/01/04 03:10:12;;;;;;;9.85;5.30;;;;;;;7.00;97.95;99820.84;6194397;23;20320;-89
2022/01/04 03:12:42;;;;;;;9.70;5.10;;;;;;;6.95;98.13;99809.88;6169265;23;20035;-89
2022/01/04 03:15:08;;;;;;;7.65;4.45;;;;;;;6.83;97.82;99790.84;6246008;23;20010;-88
2022/01/04 03:17:34;;;;;;;10.27;4.80;;;;;;;6.95;98.58;99803.66;6218614;23;20012;-89
2022/01/04 03:20:07;;;;;;;10.57;4.88;;;;;;;7.01;98.19;99805.47;6169605;23;20453;-88
2022/01/04 03:22:33;;;;;;;8.02;4.75;;;;;;;6.80;97.89;99775.09;6195505;23;20363;-89
2022/01/04 03:24:58;;;;;;;10.85;4.90;;;;;;;6.88;98.00;99765.97;6246152;23;20119;-89
2022/01/04 03:27:24;;;;;;;9.40;4.50;;;;;;;6.78;98.09;99754.81;6169132;23;20031;-89
2022/01/04 03:29:49;;;;;;;11.40;4.97;;;;;;;6.81;97.99;99757.91;6194458;23;20346;-89
2022/01/04 03:32:16;;;;;;;8.07;4.82;;;;;;;6.84;98.27;99752.06;6218900;23;20506;-88
2022/01/04 03:34:41;;;;;;;8.32;4.90;;;;;;;6.93;98.56;99766.13;6245882;23;20074;-89
2022/01/04 03:37:07;;;;;;;8.88;4.93;;;;;;;6.86;98.67;99741.06;6169323;23;20047;-88
2022/01/04 03:39:32;;;;;;;12.38;5.75;;;;;;;6.81;98.22;99741.72;6218944;23;20004;-89
2022/01/04 03:41:58;;;;;;;12.00;5.20;;;;;;;6.95;98.20;99741.63;6218672;23;20454;-88
2022/01/04 03:44:23;;;;;;;10.43;4.95;;;;;;;6.94;98.69;99748.06;6218965;23;20035;-88
2022/01/04 03:46:52;;;;;;;12.05;5.68;;;;;;;6.75;98.72;99706.72;6218551;23;20061;-87
2022/01/04 03:49:18;;;;;;;9.98;5.20;;;;;;;6.75;98.59;99699.47;6218545;23;20054;-88
2022/01/04 03:51:44;;;;;;;10.80;5.30;;;;;;;6.73;98.65;99692.63;6168880;23;20359;-89
2022/01/04 03:54:09;;;;;;;11.77;5.53;;;;;;;6.90;98.83;99726.09;6218365;23;20026;-89
2022/01/04 03:56:35;;;;;;;9.82;5.43;;;;;;;6.94;98.89;99721.09;6194008;23;20024;-89
2022/01/04 03:59:04;;;;;;;9.07;5.40;;;;;;;6.68;99.07;99671.72;6194021;23;20012;-89
2022/01/04 04:01:30;;;;;;;12.38;5.60;;;;;;;6.92;98.45;99704.31;6193579;23;20004;-88
2022/01/04 04:03:59;;;;;;;9.98;5.85;;;;;;;6.77;98.56;99677.66;6219014;23;20007;-89
2022/01/04 04:06:24;;;;;;;13.93;6.15;;;;;;;6.88;99.35;99693.16;6194031;23;20359;-89
2022/01/04 04:08:59;;;;;;;11.02;6.38;;;;;;;6.70;99.42;99658.84;6194318;23;20115;-90
2022/01/04 04:11:25;;;;;;;12.27;7.07;;;;;;;6.87;99.04;99677.19;6195542;23;20599;-89
2022/01/04 04:13:50;;;;;;;11.77;6.60;;;;;;;6.90;99.49;99695.63;6193650;23;20423;-89
2022/01/04 04:16:16;;;;;;;14.20;7.47;;;;;;;6.55;99.26;99634.91;6193946;23;20023;-88
2022/01/04 04:18:42;;;;;;;17.20;7.38;;;;;;;6.60;99.08;99628.84;6194169;23;20039;-88
2022/01/04 04:21:10;;;;;;;15.70;7.45;;;;;;;6.76;99.37;99657.97;6218747;23;20011;-88
2022/01/04 04:23:36;;;;;;;13.80;7.45;;;;;;;6.57;99.36;99622.06;6244236;23;19997;-89
2022/01/04 04:26:02;;;;;;;13.52;7.45;;;;;;;6.87;99.27;99655.63;6169151;23;20015;-89
2022/01/04 04:28:31;;;;;;;14.40;7.38;;;;;;;6.54;99.18;99611.72;6218343;23;20016;-88
2022/01/04 04:30:56;;;;;;;12.88;7.03;;;;;;;6.71;99.75;99644.31;6169843;23;20016;-88
2022/01/04 04:33:25;;;;;;;15.68;7.25;;;;;;;6.71;99.29;99643.50;6243480;23;20000;-88
2022/01/04 04:35:53;;;;;;;14.18;7.03;;;;;;;6.63;99.92;99629.25;6218865;23;20008;-88
2022/01/04 04:38:24;;;;;;;14.25;7.07;;;;;;;6.77;99.34;99646.13;6193371;23;20055;-88
2022/01/04 04:40:50;;;;;;;14.57;7.68;;;;;;;6.85;99.46;99661.22;6219169;23;20015;-88
2022/01/04 04:43:15;;;;;;;14.68;7.60;;;;;;;6.80;99.64;99648.38;6167108;23;20008;-88
2022/01/04 04:45:41;;;;;;;13.90;7.60;;;;;;;6.89;99.31;99648.94;6244433;23;20015;-88
2022/01/04 04:48:06;;;;;;;15.88;7.75;;;;;;;6.66;99.24;99620.72;6245069;23;20031;-88
2022/01/04 04:50:33;;;;;;;13.57;7.07;;;;;;;6.82;99.82;99657.09;6218427;23;20334;-88
2022/01/04 04:52:59;;;;;;;16.33;7.57;;;;;;;6.80;99.92;99652.97;6193232;23;20004;-88
2022/01/04 04:55:24;;;;;;;15.55;7.63;;;;;;;6.78;99.96;99661.28;6218080;23;20023;-88
2022/01/04 04:57:50;;;;;;;18.35;8.57;;;;;;;6.82;99.67;99651.72;6168457;23;20383;-88
2022/01/04 05:00:16;;;;;;;15.90;8.70;;;;;;;6.81;99.72;99647.34;6193522;23;20008;-89
2022/01/04 05:02:42;;;;;;;17.17;8.05;;;;;;;6.47;99.65;99598.28;6245523;23;20312;-89
2022/01/04 05:05:08;;;;;;;17.50;8.40;;;;;;;6.82;99.66;99650.88;6196884;23;20095;-89
2022/01/04 05:07:34;;;;;;;18.52;9.02;;;;;;;6.77;99.97;99638.03;6196776;23;20435;-89
2022/01/04 05:10:05;;;;;;;15.00;9.07;;;;;;;6.44;99.72;99584.44;6248438;23;20075;-89
2022/01/04 05:12:31;;;;;;;16.98;9.38;;;;;;;6.69;100.00;99630.25;6248421;23;20030;-89
2022/01/04 05:14:58;;;;;;;14.68;8.60;;;;;;;6.59;99.99;99608.34;6196844;23;20048;-88
2022/01/04 05:17:23;;;;;;;18.65;9.63;;;;;;;6.77;99.99;99635.34;6221386;23;20004;-89
2022/01/04 05:19:49;;;;;;;16.73;9.45;;;;;;;6.80;99.87;99629.50;6248002;23;20684;-88
2022/01/04 05:22:18;;;;;;;17.52;9.60;;;;;;;6.78;100.00;99630.81;6221819;23;20390;-89
2022/01/04 05:24:43;;;;;;;14.05;8.85;;;;;;;6.49;100.00;99576.50;6194912;23;20008;-89
2022/01/04 05:27:09;;;;;;;16.17;9.88;;;;;;;6.49;100.00;99581.88;6196172;23;20034;-88
2022/01/04 05:29:35;;;;;;;18.35;8.70;;;;;;;6.64;100.00;99630.91;6196258;23;20019;-88
2022/01/04 05:32:00;;;;;;;22.20;10.80;;;;;;;6.04;100.00;99550.53;6221418;23;20038;-88
2022/01/04 05:34:27;;;;;;;19.67;10.65;;;;;;;6.05;100.00;99571.00;6171343;23;20012;-88
2022/01/04 05:36:52;;;;;;;19.58;10.93;;;;;;;6.32;100.00;99619.34;6221094;23;20031;-88
2022/01/04 05:39:19;;;;;;;22.20;11.95;;;;;;;6.13;100.00;99596.88;6170816;23;20062;-88
2022/01/04 05:41:45;;;;;;;20.42;11.98;;;;;;;6.16;100.00;99588.34;6221359;23;20358;-88
2022/01/04 05:44:11;;;;;;;22.95;11.85;;;;;;;5.97;100.00;99568.59;6196759;23;20054;-88
2022/01/04 05:46:36;;;;;;;21.63;11.95;;;;;;;5.79;100.00;99543.19;6220641;23;20008;-88
2022/01/04 05:49:05;;;;;;;21.10;12.18;;;;;;;6.16;100.00;99599.13;6247054;23;20094;-88
2022/01/04 05:51:30;;;;;;;22.15;12.40;;;;;;;6.12;100.00;99582.56;6223165;23;20462;-88
2022/01/04 05:53:56;;;;;;;24.48;12.93;;;;;;;5.91;100.00;99572.94;6171009;23;20004;-88
2022/01/04 05:56:22;;;;;;;21.45;13.00;;;;;;;6.14;100.00;99602.03;6195404;23;20008;-88
2022/01/04 05:58:47;;;;;;;23.30;13.02;;;;;;;6.11;100.00;99602.47;6196008;23;20041;-87
2022/01/04 06:01:13;;;;;;;22.67;13.52;;;;;;;6.12;100.00;99596.03;6221866;23;20022;-90
2022/01/04 06:03:40;;;;;;;21.40;12.95;;;;;;;5.90;100.00;99557.00;6197124;23;20000;-90
2022/01/04 06:06:06;;;;;;;22.08;13.90;;;;;;;5.91;100.00;99562.16;6172635;23;20016;-92
2022/01/04 06:08:35;;;;;;;24.83;14.20;;;;;;;5.93;100.00;99562.75;6173079;23;20095;-89
2022/01/04 06:11:02;;;;;;;22.85;13.98;;;;;;;6.18;100.00;99580.06;6197066;23;20402;-89
2022/01/04 06:16:15;;;;;;;24.13;15.15;;;;;;;6.20;100.00;99572.56;6224398;23;20085;-88
2022/01/04 06:18:42;;;;;;;25.30;15.70;;;;;;;5.92;100.00;99539.59;6195210;23;20012;-89
2022/01/04 06:21:11;;;;;;;24.77;14.90;;;;;;;6.20;100.00;99578.78;6194760;23;20016;-89
2022/01/04 06:23:36;;;;;;;26.33;15.23;;;;;;;6.15;100.00;99573.22;6219298;23;20004;-87
2022/01/04 06:26:02;;;;;;;25.15;15.23;;;;;;;5.97;100.00;99545.16;6169865;23;20103;-89
2022/01/04 06:28:27;;;;;;;25.88;16.33;;;;;;;5.90;100.00;99538.16;6244788;23;20019;-89
2022/01/04 06:30:53;;;;;;;25.23;15.07;;;;;;;6.01;100.00;99550.97;6219134;23;20053;-88
2022/01/04 06:33:23;;;;;;;28.33;16.50;;;;;;;6.12;100.00;99574.47;6194193;23;20335;-89
2022/01/04 06:36:17;;;;;;;;;;;;;;;;;;;;;
2022/01/04 06:38:46;;;;;;;28.38;16.60;;;;;;;5.70;100.00;99504.09;6155942;23;20084;-93
2022/01/04 06:44:36;;;;;;;23.83;15.25;;;;;;;5.94;100.00;99553.66;6097297;23;20461;-93
2022/01/04 06:47:02;;;;;;;24.25;16.38;;;;;;;5.69;100.00;99509.72;6072771;23;20015;-92
2022/01/04 06:49:28;;;;;;;24.10;16.02;;;;;;;6.10;100.00;99563.09;6188155;23;20008;-90
2022/01/04 06:51:57;;;;;;;26.90;16.40;;;;;;;5.89;100.00;99518.50;6195329;23;20043;-91
2022/01/04 06:54:24;;;;;;;25.38;15.40;;;;;;;5.83;100.00;99507.75;6196904;23;20373;-90
2022/01/04 06:56:53;;;;;;;26.48;17.23;;;;;;;6.07;100.00;99550.09;6220082;23;20379;-90
2022/01/04 06:59:22;;;;;;;24.83;16.02;;;;;;;5.67;100.00;99474.94;6194899;23;20099;-90
2022/01/04 07:01:48;;;;;;;29.27;16.75;;;;;;;6.07;100.00;99542.00;6220104;23;20317;-90
2022/01/04 07:04:15;;;;;;;26.10;16.52;;;;;;;5.67;100.00;99483.00;6219338;23;20367;-90
2022/01/04 07:06:41;;;;;;;26.02;16.67;;;;;;;5.56;100.00;99475.63;6194791;23;20019;-90
2022/01/04 07:09:07;;;;;;;28.95;16.65;;;;;;;5.53;100.00;99460.72;6194775;23;20008;-91
2022/01/04 07:11:35;;;;;;;27.40;16.30;;;;;;;5.66;100.00;99465.22;6220266;23;20084;-90
2022/01/04 07:14:01;;;;;;;29.58;17.45;;;;;;;5.90;100.00;99497.75;6220116;23;20008;-91
2022/01/04 07:16:27;;;;;;;28.65;17.08;;;;;;;5.85;100.00;99490.34;6220592;23;20446;-90
2022/01/04 07:18:54;;;;;;;30.90;17.20;;;;;;;5.60;100.00;99461.50;6220078;23;20004;-91
2022/01/04 07:21:21;;;;;;;32.20;17.00;;;;;;;5.89;100.00;99504.19;6220374;23;20004;-90
2022/01/04 07:23:54;;;;;;;31.90;17.52;;;;;;;6.04;100.00;99534.38;6170433;23;20382;-91
2022/01/04 07:26:20;;;;;;;30.35;17.48;;;;;;;5.82;100.00;99504.25;6219511;23;20062;-91
2022/01/04 07:28:47;;;;;;;31.73;17.83;;;;;;;6.05;100.00;99513.63;6194802;23;20406;-90
2022/01/04 07:31:14;;;;;;;29.52;17.80;;;;;;;5.94;100.00;99502.50;6194930;23;20019;-90
2022/01/04 07:33:40;;;;;;;31.08;17.25;;;;;;;6.03;100.00;99507.66;6218624;23;20032;-88
2022/01/04 07:36:10;;;;;;;31.98;17.88;;;;;;;6.03;100.00;99497.69;6192591;23;20015;-91
2022/01/04 07:38:37;;;;;;;29.15;16.95;;;;;;;5.79;100.00;99448.97;6194214;23;20119;-91
2022/01/04 07:41:04;;;;;;;30.27;17.55;;;;;;;6.01;100.00;99477.41;6193857;23;20012;-91
2022/01/04 07:43:35;;;;;;;31.55;18.25;;;;;;;5.49;100.00;99408.38;6219594;23;20000;-91
2022/01/04 07:46:04;;;;;;;33.83;17.98;;;;;;;5.73;100.00;99455.22;6219618;23;20347;-90
2022/01/04 07:48:31;;;;;;;34.20;18.38;;;;;;;5.97;100.00;99498.56;6194940;23;20023;-90
2022/01/04 07:50:59;;;;;;;33.28;19.60;;;;;;;5.52;100.00;99434.88;6194239;23;20039;-91
2022/01/04 07:53:30;;;;;;;35.30;19.17;;;;;;;5.50;100.00;99426.19;6244981;23;20008;-91
2022/01/04 07:56:18;;;;;;;33.47;18.10;;;;;;;6.00;100.00;99502.72;6219220;23;20339;-91
2022/01/04 07:58:44;;;;;;;34.10;19.17;;;;;;;6.00;100.00;99508.91;6194540;23;20015;-91
2022/01/04 08:01:14;;;;;;;32.67;18.92;;;;;;;5.53;100.00;99438.38;6194906;23;20012;-91
2022/01/04 08:03:43;;;;;;;35.30;18.88;;;;;;;5.57;100.00;99445.81;6194456;23;20004;-91
2022/01/04 08:06:08;;;;;;;34.83;18.73;;;;;;;5.66;100.00;99454.44;6218591;23;20008;-90
2022/01/04 08:08:34;;;;;;;33.85;18.05;;;;;;;5.88;100.00;99479.13;6193233;23;20011;-90
2022/01/04 08:11:00;;;;;;;34.83;19.30;;;;;;;5.58;100.00;99427.78;6218758;23;20336;-89
2022/01/04 08:13:31;;;;;;;36.60;19.25;;;;;;;5.62;100.00;99437.09;6218776;23;20004;-90
2022/01/04 08:15:57;;;;;;;35.28;18.77;;;;;;;5.62;100.00;99432.53;6219261;23;20008;-90
2022/01/04 08:18:24;;;;;;;36.20;19.55;;;;;;;5.83;100.00;99467.38;6218777;23;20091;-90
2022/01/04 08:20:53;;;;;;;37.63;19.52;;;;;;;5.61;100.00;99433.56;6219168;23;20004;-89
2022/01/04 08:23:19;;;;;;;38.25;19.27;;;;;;;5.69;100.00;99456.69;6218736;23;20004;-90
2022/01/04 08:25:44;;;;;;;37.95;20.10;;;;;;;5.93;100.00;99492.75;6218923;23;20119;-89
2022/01/04 08:28:13;;;;;;;38.17;19.92;;;;;;;5.76;100.00;99464.75;6193557;23;20020;-90
2022/01/04 08:30:39;;;;;;;38.97;20.02;;;;;;;5.65;100.00;99433.94;6218856;23;20435;-90
2022/01/04 08:33:04;;;;;;;34.63;19.88;;;;;;;5.98;100.00;99489.47;6193252;23;20453;-90
2022/01/04 08:35:29;;;;;;;41.78;20.35;;;;;;;5.63;100.00;99436.88;6245549;23;20011;-90
2022/01/04 08:37:55;;;;;;;35.42;18.83;;;;;;;5.96;100.00;99492.34;6193296;23;20062;-90
2022/01/04 08:40:23;;;;;;;37.35;20.40;;;;;;;5.67;100.00;99448.03;6168555;23;20003;-90
2022/01/04 08:42:49;;;;;;;34.20;19.25;;;;;;;5.91;100.00;99496.72;6195473;23;20003;-90
2022/01/04 08:45:15;;;;;;;33.50;18.67;;;;;;;6.01;100.00;99524.03;6220256;23;20435;-91
2022/01/04 08:47:44;;;;;;;35.45;18.75;;;;;;;6.13;100.00;99541.13;6249035;23;20000;-90
2022/01/04 08:50:12;;;;;;;34.53;19.77;;;;;;;5.78;100.00;99495.75;6222461;23;20036;-90
2022/01/04 08:52:38;;;;;;;34.97;19.20;;;;;;;5.78;100.00;99493.06;6250350;23;20129;-90
2022/01/04 08:55:04;;;;;;;39.40;20.05;;;;;;;5.68;100.00;99476.56;6245718;23;20004;-90
2022/01/04 08:57:32;;;;;;;38.00;19.98;;;;;;;5.73;100.00;99482.16;6194448;23;20390;-90
2022/01/04 08:59:58;;;;;;;37.90;20.40;;;;;;;5.74;100.00;99485.66;6218729;23;20004;-90
2022/01/04 09:02:23;;;;;;;37.08;19.88;;;;;;;6.03;100.00;99527.31;6245153;23;20489;-90
2022/01/04 09:04:52;;;;;;;32.97;19.38;;;;;;;6.05;100.00;99514.44;6193467;23;20382;-90
2022/01/04 09:07:18;;;;;;;35.50;20.45;;;;;;;5.79;100.00;99461.63;6218863;23;20458;-90
2022/01/04 09:09:44;;;;;;;33.03;19.80;;;;;;;5.98;100.00;99476.00;6218791;23;20035;-90
2022/01/04 09:12:10;;;;;;;34.97;19.42;;;;;;;5.78;100.00;99447.31;6217533;23;20043;-92
2022/01/04 09:20:12;;;;;;;37.70;21.63;;;;;;;5.94;100.00;99459.41;6245456;23;20172;-90
2022/01/04 09:22:42;;;;;;;33.83;20.30;;;;;;;6.07;100.00;99484.63;6193809;23;20042;-91
2022/01/04 09:25:09;;;;;;;34.17;20.20;;;;;;;6.28;100.00;99516.56;6218661;23;20000;-90
2022/01/04 09:27:35;;;;;;;34.40;20.52;;;;;;;6.18;100.00;99516.22;6245077;23;20062;-90
2022/01/04 09:30:04;;;;;;;38.05;20.45;;;;;;;5.95;100.00;99497.94;6218827;23;20004;-90
2022/01/04 09:32:53;;;;;;;;;;;;;;;;;;;;;
2022/01/04 09:35:19;;;;;;;35.28;20.63;;;;;;;5.91;100.00;99484.09;6245075;23;20087;-92
2022/01/04 09:37:48;;;;;;;36.10;20.27;;;;;;;6.39;100.00;99560.00;6193450;23;20043;-89
2022/01/04 09:40:15;;;;;;;37.42;20.67;;;;;;;5.84;100.00;99456.38;6218712;23;20098;-90
2022/01/04 09:42:42;;;;;;;36.67;20.92;;;;;;;5.94;100.00;99472.88;6244070;23;20363;-90
2022/01/04 09:45:08;;;;;;;37.08;21.17;;;;;;;6.44;100.00;99544.00;6219395;23;20069;-89
2022/01/04 09:48:04;;;;;;;;;;;;;;;;;;;;;
2022/01/04 09:50:32;;;;;;;38.13;23.00;;;;;;;6.01;100.00;99483.63;6231809;23;20506;-90
2022/01/04 09:53:01;;;;;;;38.50;23.33;;;;;;;6.20;100.00;99508.78;6220340;23;20439;-90
2022/01/04 09:55:27;;;;;;;39.92;24.25;;;;;;;6.04;100.00;99476.97;6220138;23;20015;-90
2022/01/04 09:57:55;;;;;;;38.95;22.88;;;;;;;6.31;100.00;99510.72;6247631;23;20335;-90
2022/01/04 10:00:21;;;;;;;38.13;23.23;;;;;;;6.48;100.00;99532.56;6246042;23;20443;-90
2022/01/04 10:02:51;;;;;;;39.22;24.20;;;;;;;6.06;100.00;99458.75;6220375;23;20008;-89
2022/01/04 10:05:29;;;;;;;42.72;25.30;;;;;;;6.32;100.00;99509.69;6195728;23;20010;-89
2022/01/04 10:08:05;;;;;;;42.92;25.55;;;;;;;6.42;100.00;99513.75;6248568;23;20071;-90
2022/01/04 10:10:33;;;;;;;42.28;24.63;;;;;;;6.39;100.00;99508.81;6220160;23;20087;-90
2022/01/04 10:13:02;;;;;;;43.10;24.80;;;;;;;6.16;100.00;99461.78;6220890;23;20010;-91
2022/01/04 10:15:50;;;;;;;45.83;25.70;;;;;;;6.53;100.00;99502.25;6220887;23;20008;-91
2022/01/04 10:18:20;;;;;;;43.67;25.98;;;;;;;6.69;100.00;99511.66;6195821;23;20034;-90
2022/01/04 10:20:49;;;;;;;42.67;26.42;;;;;;;6.23;100.00;99430.22;6219803;23;20011;-90
2022/01/04 10:23:17;;;;;;;47.45;26.08;;;;;;;6.59;100.00;99479.81;6220926;23;20000;-89
2022/01/04 10:25:42;;;;;;;40.30;24.42;;;;;;;6.36;100.00;99449.97;6220303;23;20015;-90
2022/01/04 10:28:08;;;;;;;37.38;24.40;;;;;;;6.53;100.00;99474.50;6219423;23;20020;-90
2022/01/04 10:30:39;;;;;;;39.08;24.50;;;;;;;6.30;100.00;99430.13;6195062;23;20008;-90
2022/01/04 10:33:13;;;;;;;41.60;24.75;;;;;;;6.43;100.00;99443.47;6195220;23;20008;-90
2022/01/04 10:35:43;;;;;;;40.90;26.35;;;;;;;6.48;100.00;99435.56;6220221;23;20062;-90
2022/01/04 10:38:21;;;;;;;41.00;25.17;;;;;;;6.50;100.00;99433.47;6220366;23;20090;-90
2022/01/04 10:40:57;;;;;;;42.05;25.35;;;;;;;6.54;100.00;99439.25;6220635;23;20008;-91
2022/01/04 10:43:30;;;;;;;39.72;24.45;;;;;;;6.73;100.00;99467.03;6246819;23;20000;-89
2022/01/04 10:45:57;;;;;;;39.97;25.17;;;;;;;6.73;100.00;99464.34;6219688;23;20007;-90
2022/01/04 10:48:27;;;;;;;37.78;25.15;;;;;;;7.05;100.00;99509.19;6194596;23;20058;-91
2022/01/04 10:54:17;;;;;;;40.42;24.55;;;;;;;6.83;100.00;99466.50;6242864;23;20004;-90
2022/01/04 10:56:49;;;;;;;39.08;25.08;;;;;;;6.63;100.00;99424.41;6219008;23;20008;-91
2022/01/04 10:59:33;;;;;;;38.95;25.02;;;;;;;7.03;100.00;99502.16;6217476;23;20027;-90
2022/01/04 11:02:19;;;;;;;38.88;24.88;;;;;;;6.96;100.00;99479.00;6218678;23;20008;-91
2022/01/04 11:05:04;;;;;;;35.75;24.90;;;;;;;6.74;100.00;99432.81;6222224;23;20008;-90
2022/01/04 11:07:33;;;;;;;40.70;24.85;;;;;;;7.07;100.00;99480.13;6198067;23;20008;-90
2022/01/04 11:09:59;;;;;;;40.45;25.42;;;;;;;7.13;100.00;99490.84;6222063;23;20394;-90
2022/01/04 11:12:25;;;;;;;41.53;27.38;;;;;;;7.07;100.00;99475.56;6169424;23;20019;-90
2022/01/04 11:14:51;;;;;;;40.78;26.85;;;;;;;7.16;100.00;99493.09;6218532;23;20083;-90
2022/01/04 11:17:18;;;;;;;39.80;26.45;;;;;;;6.85;100.00;99424.78;6169573;23;20402;-90
2022/01/04 11:19:50;;;;;;;42.83;25.90;;;;;;;7.18;100.00;99482.06;6193615;23;20435;-90
2022/01/04 11:22:17;;;;;;;;;;;;;;;7.17;100.00;99486.63;6195482;23;20356;-90
2022/01/04 11:24:46;;;;;;;37.78;26.10;;;;;;;6.80;100.00;99423.81;6193976;23;19908;-91
2022/01/04 11:27:12;;;;;;;36.13;26.30;;;;;;;7.21;100.00;99500.50;6195497;23;20012;-90
2022/01/04 11:29:43;;;;;;;39.78;26.67;;;;;;;7.09;100.00;99473.47;6194091;23;20444;-90
2022/01/04 11:32:16;;;;;;;37.63;25.35;;;;;;;7.19;100.00;99489.13;6219115;23;20343;-90
2022/01/04 11:35:16;;;;;;;38.45;26.02;;;;;;;7.09;100.00;99481.53;6218347;23;20351;-90
2022/01/04 11:38:02;;;;;;;41.28;27.15;;;;;;;7.08;100.00;99477.19;6194550;23;20338;-90
2022/01/04 11:40:35;;;;;;;40.40;26.60;;;;;;;6.96;100.00;99462.84;6193075;23;20070;-91
2022/01/04 11:43:06;;;;;;;42.42;26.63;;;;;;;7.14;100.00;99519.44;6226156;23;20004;-90
2022/01/04 11:45:46;;;;;;;19.35;11.18;;;;;;;6.30;100.00;99439.06;6222038;23;20007;-88
2022/01/04 11:48:32;;;;;;;6.57;3.05;;;;;;;6.44;100.00;99546.72;6217954;23;20004;-90
2022/01/04 11:51:07;;;;;;;5.18;2.50;;;;;;;5.86;100.00;99539.63;6218286;23;20344;-90